Pagrindinis puslapis
METAR-TAF:

METAR-TAF

Oro uostai :

Ernšioldsvikas, Švedija

platuma: 63-24N, ilguma: 018-58E, Aukštis: 103 m

Dabartinis oras

Ataskaita buvo paskelbta 23 minutes, ne 09:20 UTC
Vėjas 6 kt iš Šiaurės/Šiaurės Rytų, svyruoja nuo Šiaurės ir Rytų/Šiaurės Rytų
Temperatūra 7°C
Drėgmė 100%
Slėgis 1007 hPa
Matomumas 10 km arba daugiau

METAR: ESNO 170920Z AUTO 03006KT 360V070 9999 OVC004/// 07/07 Q1007

Laikas: 11:43 (09:43 UTC)

Prognozė

Ataskaita buvo paskelbta 4 valandos ir 13 minutes, ne 05:30 UTC
Prognozė galioja nuo 17 metu 06 UTC su 17 metu 09 UTC
Vėjas 4 kt iš Šiaurės Rytų
Matomumas: 6000 m
Apsiniaukę ne aukštis 200 ft
Laikinai
nuo 17 metu 06 UTC su 17 metu 09 UTC
Matomumas: 0300 m
rūkas

TAF: ESNO 170530Z 1706/1709 05004KT 6000 OVC002 TEMPO 1706/1709 0300 FG

Orai ataskaitas ir orų prognozės (METAR, TAF).

turimą stotys yra geltonos ir raudonos taškus žemėlapyje.

Perkelti pele per norėdami pamatyti stoties vardą.

Tada spustelėkite, norėdami matyti oro stebėjimo ir prognozės.

Norėdami pakeisti žemėlapį: spustelėkite ant žalios mygtukų su juodo kryžiaus žemyn,; žalią mygtuką su brūkšneliu, jei norite nutolinti; arba žalių rodyklių gretimoms žemėlapius.


METAR-TAF: